Logo AVAMET
Benvolgut visitant, si us plau, ingressa Recuperar contrasenya
AVAMET paisatges

Elx Sector V

Dades diàries. Acumulats / Últims 30 dies disponibles

Data Temperatura (°C) Humitat rel. (%) Pressió rel. (hPa) Vent (km/h) Precipitació
Mínima Mitjana Màxima Amplitud
tèrmica
Mínima Mitjana Màxima Mínima Mitjana Màxima Predom. Mitjana Ràfega
màxima
Total
(mm)
Índex-n
Mínima Mitjana Màxima Mínima Mitjana Màxima n
0 a 1
P0 max
mm 5'
Dades mensuals acumulades fins l'últim dia disponible
04/2020 10,8 11,6 13,2 14,6 16,9 19,3 22,6 11,8 48 73 88 1.008 1.015 1.022   2,0 32,2 15,6
Dades anuals acumulades fins l'últim dia disponible
2020 4,8 10,6 15,8 14,4 11,5 19,4 28,4 23,6 26 68 92 1.003 1.020 1.034   2,1 62,8 153,0
Últims 30 dies disponibles
05-04-2020 11,3     14,4     16,9 5,6 63 74 83 1.019 1.020 1.022 E 2,6 24,1 0,0
04-04-2020 10,8     13,9     17,6 6,8 62 75 82 1.018 1.019 1.021 E 2,6 25,7 0,0
03-04-2020 11,8     14,7     19,8 8,0 48 69 88 1.013 1.016 1.019 SE 1,9 25,7 0,0
02-04-2020 10,9     13,5     19,4 8,5 53 78 88 1.009 1.011 1.014 SE 1,4 32,2 11,2 0,62 1,80
01-04-2020 13,2     16,7     22,6 9,4 52 72 85 1.008 1.010 1.011 SE 1,6 30,6 4,4 0,30 0,90
31-03-2020 11,3     14,4     19,2 7,9 60 76 86 1.005 1.007 1.010 S 1,4 27,4 1,4 0,20
30-03-2020 10,8     12,9     16,1 5,3 75 78 81 1.008 1.010 1.012 E 7,6 37,0 0,0
29-03-2020 9,1     15,4     22,3 13,2 43 63 80 1.012 1.014 1.017 SSE 0,6 22,5 0,0
28-03-2020 9,1     12,6     17,8 8,7 48 70 83 1.013 1.015 1.017 NNW 1,0 22,5 0,2
27-03-2020 9,4     10,3     11,5 2,1 62 76 87 1.009 1.010 1.013 NE 2,4 29,0 6,6
26-03-2020 8,8     13,1     19,4 10,6 36 71 92 1.005 1.007 1.013 E 2,1 33,8 3,4
25-03-2020 9,9     11,7     14,1 4,2 63 76 87 1.013 1.014 1.015 E 1,8 22,5 2,8
24-03-2020 11,7     12,9     14,3 2,6 79 85 88 1.011 1.013 1.014 NE 7,2 41,8 39,8
23-03-2020 12,4     14,1     17,2 4,8 75 84 88 1.012 1.013 1.015 E 6,3 37,0 1,0
22-03-2020 10,2     12,9     17,1 6,9 71 83 88 1.009 1.011 1.013 NNW 0,5 19,3 6,4
21-03-2020 10,9     14,1     17,1 6,2 67 78 88 1.010 1.012 1.015 E 3,2 25,7 15,8
20-03-2020 11,7     14,2     16,2 4,5 59 73 83 1.014 1.016 1.018 E 5,1 33,8 0,0
19-03-2020 11,9     14,4     17,4 5,5 60 73 82 1.018 1.020 1.023 E 6,6 35,4 0,0
18-03-2020 12,3     15,5     19,2 6,9 53 69 81 1.022 1.023 1.024 E 6,1 37,0 0,0
17-03-2020 10,5     14,1     18,7 8,2 68 82 88 1.017 1.021 1.024 E 2,7 32,2 3,4
16-03-2020 10,7     13,3     16,1 5,4 65 78 86 1.010 1.012 1.017 NNW 3,5 40,2 2,4
15-03-2020 12,1     15,1     18,3 6,2 53 74 85 1.014 1.016 1.020 E 1,9 24,1 0,0
14-03-2020 12,6     16,3     21,6 9,0 56 72 86 1.017 1.019 1.020 SE 1,0 22,5 0,0
13-03-2020 14,4     17,8     24,7 10,3 40 58 72 1.015 1.017 1.019 E 2,6 27,4 0,0
12-03-2020 13,0     18,9     26,2 13,2 39 56 82 1.016 1.018 1.022 ESE 0,3 16,1 0,0
11-03-2020 11,6     18,2     27,8 16,2 40 64 81 1.020 1.021 1.024 E 1,3 20,9 0,0
10-03-2020 12,9     16,1     18,8 5,9 37 62 78 1.021 1.024 1.026 SE 1,4 25,7 0,0
09-03-2020 15,1     19,1     22,4 7,3 31 41 55 1.019 1.020 1.023 NW 2,1 30,6 0,0
08-03-2020 10,1     17,3     24,9 14,8 29 48 68 1.019 1.022 1.024 S 0,8 22,5 0,0
07-03-2020 11,4     14,8     20,9 9,5 34 44 68 1.020 1.021 1.024 NW 5,1 49,9 0,0
Últims 13 mesos disponibles
03/2020 8,8 11,9 15,8 15,5 11,5 20,1 27,8 19,0 41 65 85 1.007 1.015 1.024 E 3,1 62,8 83,2
02/2020 7,9 11,4 15,6 15,6 15,1 21,4 28,4 20,5 42 68 86 1.014 1.025 1.032 WNW 1,2 38,6 1,0
01/2020 4,8 8,3 14,6 12,1 12,7 16,9 23,0 18,2 58 71 83 1.008 1.022 1.032 NNW 1,8 57,9 53,2
12/2019 7,9 11,1 16,1 14,3 13,9 18,6 24,8 16,9 47 68 83 1.006 1.019 1.033 NNW 1,9 49,9 47,6
11/2019 7,1 12,2 19,6 16,0 14,2 20,3 28,6 21,5 45 58 85 1.001 1.012 1.019 W 2,1 59,5 19,8
10/2019 10,9 17,4 22,2 21,1 16,8 26,3 34,3 23,4 47 67 85 1.009 1.017 1.022 NNW 1,3 40,2 25,0
09/2019 16,6 21,1 24,8 24,5 21,6 28,9 34,3 17,7 54 73 86 1.010 1.017 1.022 E 2,3 51,5 141,8
08/2019 19,7 23,7 27,7 27,4 27,8 32,4 40,9 21,2 47 67 77 1.010 1.015 1.019 SE 2,4 38,6 38,8
07/2019 21,3 23,9 25,9 27,9 28,2 32,6 37,8 16,5 36 60 74 1.006 1.014 1.020 E 3,7 45,1 0,0
06/2019 16,3 19,9 24,4 24,1 24,4 29,2 35,5 19,2 41 59 75 1.009 1.015 1.022 E 3,3 46,7 0,6
05/2019 13,0 16,3 20,9 20,2 21,7 25,2 32,6 19,6 47 64 77 1.006 1.016 1.025 SE 2,6 38,6 0,8
04/2019 7,9 12,7 16,0 16,6 14,9 21,8 30,5 22,6 42 64 86 1.001 1.013 1.026 SE 2,2 57,9 125,2
03/2019 8,3 11,0 14,1 15,2 14,1 20,5 29,1 20,8 37 58 85 1.012 1.023 1.031 E 2,7 41,8 14,4
Tots els anys disponibles
2019 3,6 15,6 27,7 19,4 13,2 24,3 40,9 37,3 36 63 86 998 1.017 1.033 E 2,4 59,5 416,0
2018 4,2 15,7 28,0 19,5 9,8 24,3 38,5 34,3 43 66 83 1.000 1.017 1.032 SE 2,5 59,5 239,0
2017 2,7 15,8 28,2 19,9 7,7 24,3 37,9 35,2 45 59 65 1.011 1.015 1.021 1,8 56,0 223,2
2016 4,6 16,0 26,3 20,1 12,7 24,1 40,6 36,0 55 60 71 1.012 1.016 1.024 52,0 239,6
2015 4,0 16,0 23,5 20,1 22,8 24,5 42,4 38,4 51 61 71 996 1.015 1.029 3,3 62,8 164,8
2014 2,3 16,1 26,2 20,2 11,8 24,7 38,7 36,4 33 61 82 991 1.014 1.032 3,2 56,3 149,8
2013 4,1 15,3 19,6 19,2 21,1 23,7 38,9 34,8 43 57 76 1.007 1.017 1.029 3,7 61,2 168,8
2012 0,6 15,1 22,8 19,5 22,3 24,0 39,8 39,2 48 59 71 1.014 1.017 1.020 3,8 56,3 276,2
2011 2,1 15,7 25,4 19,8 9,2 23,9 39,3 37,2 28 61 85 4,1 55,0 250,4
2010 0,2 14,7 27,3 18,9 6,7 23,0 43,5 43,3 38 63 88 3,0 52,0 273,4
2009 329,0
2008 19,1 495,4
2007 4,1 15,6 19,3 24,1 36,4 32,3 28 59 82 1.007 1.018 1.036 3,7 87,0 427,9
2006 0,6 16,1 19,7 24,4 37,6 37,0 32 60 86 1.002 1.017 1.078 3,3 69,2 186,0
2005 -0,1 14,8 19,2 23,6 39,0 39,1 25 58 84 1.003 1.018 1.037 2,2 59,0 168,1
2004 18,9 213,0
Temperatura (°C)
Humitat relativa (%)
Velocitat del vent i ràfega màxima (km/h)
Direcció del vent (°)
Pressió (hPa)
Precipitació (mm)
Nota sobre les dades: s'avisa a l'usuari de la provisionalitat i no oficialitat d'aquestes dades
Logo AVAMET blanc
Web allotjada a Sollutia
Llicència de Creative CommonsLa web d'AVAMET i els seus continguts estan subjectes a una llicència de
Reconeixement - No Comercial - Compartir igual
Últimes estacions:  Altea - Com. Regants (Soci), Almoines (Inforatge), Beniparrell (Inforatge), Albal (Inforatge), Almussafes - Parc Industrial (Inforatge), La Vilavella (Soci), la Serratella (soci) - - -